createdAt,value
2019-01-21T00:00:11.216Z,2.21
2019-01-21T00:01:09.741Z,2.05
2019-01-21T00:02:08.303Z,1.99
2019-01-21T00:03:14.050Z,1.93
2019-01-21T00:04:05.641Z,2.02
2019-01-21T00:05:04.281Z,1.87
2019-01-21T00:06:02.817Z,1.99
2019-01-21T00:07:01.690Z,1.77
2019-01-21T00:08:00.168Z,1.8
2019-01-21T00:08:58.701Z,1.81
2019-01-21T00:12:38.014Z,1.99
2019-01-21T00:13:36.534Z,1.72
2019-01-21T00:14:35.102Z,1.8
2019-01-21T00:15:33.811Z,1.79
2019-01-21T00:16:32.561Z,1.62
2019-01-21T00:17:31.083Z,1.68
2019-01-21T00:18:29.673Z,1.54
2019-01-21T00:19:28.349Z,1.73
2019-01-21T00:20:26.867Z,1.6
2019-01-21T00:21:25.665Z,1.62
2019-01-21T00:24:05.874Z,1.47
2019-01-21T00:25:04.411Z,1.44
2019-01-21T00:26:02.987Z,1.11
2019-01-21T00:27:01.702Z,1.16
2019-01-21T00:28:00.414Z,1.27
2019-01-21T00:28:58.922Z,1.2
2019-01-21T00:29:57.703Z,1.15
2019-01-21T00:30:56.337Z,1.02
2019-01-21T00:31:54.861Z,1.27
2019-01-21T00:32:53.412Z,1.23
2019-01-21T00:35:33.774Z,1.27
2019-01-21T00:36:32.385Z,1.42
2019-01-21T00:37:30.918Z,1.23
2019-01-21T00:41:10.204Z,1.45
2019-01-21T00:42:08.876Z,1.4
2019-01-21T00:43:07.691Z,1.27
2019-01-21T00:44:06.383Z,1.51
2019-01-21T00:45:04.899Z,1.55
2019-01-21T00:46:03.435Z,1.63
2019-01-21T00:47:02.486Z,1.65
2019-01-21T00:48:01.309Z,1.63
2019-01-21T00:48:59.949Z,1.65
2019-01-21T00:49:58.495Z,1.59
2019-01-21T00:50:57.001Z,1.66
2019-01-21T00:51:55.558Z,1.69
2019-01-21T00:52:54.064Z,1.68
2019-01-21T00:53:52.799Z,1.42
2019-01-21T00:54:51.439Z,1.4
2019-01-21T00:55:50.227Z,1.47
2019-01-21T00:56:48.765Z,1.62
2019-01-21T00:57:47.428Z,1.63
2019-01-21T00:58:46.128Z,1.66
2019-01-21T00:59:44.759Z,1.6
2019-01-21T01:00:43.257Z,1.54
2019-01-21T01:01:41.780Z,1.48
2019-01-21T01:02:40.322Z,1.62
2019-01-21T01:03:38.877Z,1.63
2019-01-21T01:04:37.603Z,1.65
2019-01-21T01:05:36.239Z,1.63
2019-01-21T01:06:34.764Z,1.7
2019-01-21T01:07:33.542Z,1.8
2019-01-21T01:08:32.328Z,1.76
2019-01-21T01:09:30.876Z,1.79
2019-01-21T01:10:29.420Z,1.66
2019-01-21T01:11:27.988Z,1.62
2019-01-21T01:12:26.555Z,1.62
2019-01-21T01:13:25.392Z,1.6
2019-01-21T01:14:23.771Z,1.69
2019-01-21T01:15:22.434Z,1.8
2019-01-21T01:18:02.675Z,1.72
2019-01-21T01:19:01.188Z,1.8
2019-01-21T01:19:59.845Z,1.59
2019-01-21T01:20:58.395Z,1.52
2019-01-21T01:21:56.924Z,1.55
2019-01-21T01:22:55.467Z,1.54
2019-01-21T01:23:54.095Z,1.7
2019-01-21T01:24:52.643Z,1.81
2019-01-21T01:25:51.312Z,1.68
2019-01-21T01:26:50.197Z,1.68
2019-01-21T01:27:48.803Z,1.73
2019-01-21T01:28:47.385Z,1.76
2019-01-21T01:29:46.074Z,1.77
2019-01-21T01:30:44.598Z,1.65
2019-01-21T01:31:43.163Z,1.54
2019-01-21T01:32:41.705Z,1.52
2019-01-21T01:33:40.213Z,1.68
2019-01-21T01:34:38.963Z,1.65
2019-01-21T01:46:25.604Z,1.36
2019-01-21T01:47:24.250Z,1.37
2019-01-21T01:48:22.779Z,1.26
2019-01-21T01:49:21.345Z,1.27
2019-01-21T01:50:19.891Z,1.34
2019-01-21T01:51:18.435Z,1.36
2019-01-21T01:52:16.977Z,1.44
2019-01-21T01:53:15.489Z,1.42
2019-01-21T01:54:14.054Z,1.4
2019-01-21T01:55:12.611Z,1.51
2019-01-21T01:56:11.173Z,1.37
2019-01-21T01:57:09.890Z,1.41
2019-01-21T01:58:08.468Z,1.48
2019-01-21T01:59:08.150Z,1.45
2019-01-21T02:00:06.692Z,1.44
2019-01-21T02:01:05.291Z,1.47
2019-01-21T02:02:03.962Z,1.37
2019-01-21T02:04:44.427Z,1.42
2019-01-21T02:05:42.974Z,1.6
2019-01-21T02:06:41.936Z,1.63
2019-01-21T02:07:40.476Z,1.68
2019-01-21T02:08:39.033Z,1.73
2019-01-21T02:09:37.855Z,1.59
2019-01-21T02:10:36.569Z,1.66
2019-01-21T02:11:35.319Z,1.59
2019-01-21T02:12:33.968Z,1.72
2019-01-21T02:13:32.500Z,1.62
2019-01-21T02:14:31.053Z,1.7
2019-01-21T02:15:29.849Z,1.6
2019-01-21T02:16:28.365Z,1.62
2019-01-21T02:17:26.947Z,1.79
2019-01-21T02:18:25.505Z,1.79
2019-01-21T02:19:24.338Z,1.79
2019-01-21T02:20:22.877Z,1.84
2019-01-21T02:21:21.640Z,1.77
2019-01-21T02:32:42.604Z,1.6
2019-01-21T02:33:41.151Z,1.42
2019-01-21T02:34:39.817Z,1.42
2019-01-21T02:35:38.467Z,1.26
2019-01-21T02:36:36.973Z,1.2
2019-01-21T02:37:35.766Z,1.36
2019-01-21T02:38:34.469Z,1.2
2019-01-21T02:39:33.000Z,1.14
2019-01-21T02:40:31.536Z,1.34
2019-01-21T02:41:30.088Z,1.42
2019-01-21T02:42:28.637Z,1.42
2019-01-21T02:43:27.174Z,1.5
2019-01-21T02:44:25.702Z,1.48
2019-01-21T02:45:24.255Z,1.54
2019-01-21T02:46:22.817Z,1.6
2019-01-21T02:47:21.538Z,1.4
2019-01-21T02:48:20.333Z,1.2
2019-01-21T02:49:18.870Z,1.23
2019-01-21T02:50:17.438Z,1.32
2019-01-21T02:51:16.075Z,1.37
2019-01-21T02:52:14.623Z,1.33
2019-01-21T02:53:13.174Z,1.26
2019-01-21T02:54:11.908Z,1.37
2019-01-21T02:55:11.002Z,1.22
2019-01-21T02:56:09.630Z,1.16
2019-01-21T02:57:08.262Z,1.08
2019-01-21T02:58:06.786Z,1.14
2019-01-21T02:59:05.320Z,1.16
2019-01-21T03:01:45.601Z,1.04
2019-01-21T03:02:44.195Z,1.08
2019-01-21T03:03:42.721Z,1.2
2019-01-21T03:04:41.266Z,0.97
2019-01-21T03:05:40.129Z,1.08
2019-01-21T03:06:38.665Z,0.93
2019-01-21T03:07:37.188Z,1
2019-01-21T03:08:35.889Z,1.06
2019-01-21T03:09:34.421Z,0.88
2019-01-21T03:10:32.958Z,0.79
2019-01-21T03:11:31.546Z,0.79
2019-01-21T03:14:11.784Z,0.75
2019-01-21T03:15:10.420Z,0.9
2019-01-21T03:16:08.975Z,0.9
2019-01-21T03:17:07.794Z,1.11
2019-01-21T03:18:07.991Z,1.09
2019-01-21T03:19:05.037Z,1.05
2019-01-21T03:20:03.572Z,1.04
2019-01-21T03:21:02.117Z,0.97
2019-01-21T03:22:00.675Z,0.88
2019-01-21T03:22:59.475Z,1.09
2019-01-21T03:23:58.256Z,1.15
2019-01-21T03:24:56.786Z,1.16
2019-01-21T03:25:55.487Z,1.04
2019-01-21T03:26:54.078Z,1.04
2019-01-21T03:27:52.610Z,1.11
2019-01-21T03:28:51.153Z,1.09
2019-01-21T03:29:49.701Z,0.75
2019-01-21T03:30:48.241Z,0.87
2019-01-21T03:33:11.093Z,1.14
2019-01-21T03:34:09.870Z,1.14
2019-01-21T03:35:08.412Z,0.94
2019-01-21T03:36:07.097Z,0.96
2019-01-21T03:37:05.678Z,0.7
2019-01-21T03:38:04.225Z,0.76
2019-01-21T03:39:02.776Z,0.83
2019-01-21T03:40:01.494Z,0.65
2019-01-21T03:41:00.349Z,0.68
2019-01-21T03:41:58.893Z,0.44
2019-01-21T03:42:57.564Z,0.68
2019-01-21T03:43:56.234Z,0.6
2019-01-21T03:44:54.789Z,0.58
2019-01-21T03:45:53.321Z,0.66
2019-01-21T03:46:51.869Z,0.57
2019-01-21T03:47:50.409Z,0.65
2019-01-21T03:48:48.963Z,0.65
2019-01-21T03:49:47.633Z,0.6
2019-01-21T03:50:46.334Z,0.58
2019-01-21T03:51:44.874Z,0.42
2019-01-21T03:52:43.610Z,0.44
2019-01-21T03:53:42.292Z,0.49
2019-01-21T03:54:40.993Z,0.46
2019-01-21T03:55:39.514Z,0.55
2019-01-21T03:56:38.035Z,0.41
2019-01-21T03:57:36.580Z,0.42
2019-01-21T03:58:35.141Z,0.17
2019-01-21T03:59:33.866Z,0.23
2019-01-21T04:00:32.579Z,0.13
2019-01-21T04:01:33.191Z,0.31
2019-01-21T04:02:31.823Z,0.35
2019-01-21T04:03:30.442Z,0.38
2019-01-21T04:04:29.006Z,0.29
2019-01-21T04:05:27.561Z,0.23
2019-01-21T04:06:26.101Z,0.31
2019-01-21T04:07:24.665Z,0.33
2019-01-21T04:08:23.376Z,0.42
2019-01-21T04:09:22.198Z,0.39
2019-01-21T04:10:20.736Z,0.57
2019-01-21T04:11:19.357Z,0.51
2019-01-21T04:12:18.068Z,0.32
2019-01-21T04:13:16.611Z,0.35
2019-01-21T04:14:15.143Z,0.31
2019-01-21T04:15:13.727Z,0.33
2019-01-21T04:16:12.283Z,0.36
2019-01-21T04:17:10.817Z,0.28
2019-01-21T04:18:09.321Z,0.35
2019-01-21T04:19:07.852Z,0.28
2019-01-21T04:20:06.383Z,0.18
2019-01-21T04:21:04.922Z,0.26
2019-01-21T04:23:44.937Z,0.28
2019-01-21T04:24:46.175Z,0.14
2019-01-21T04:25:44.712Z,0.31
2019-01-21T04:26:43.318Z,0.21
2019-01-21T04:27:41.873Z,0.18
2019-01-21T04:28:40.418Z,0.11
2019-01-21T04:29:38.964Z,-0.05
2019-01-21T04:30:37.476Z,0.04
2019-01-21T04:31:36.142Z,0.14
2019-01-21T04:52:22.696Z,0.1
2019-01-21T04:53:21.238Z,0.15
2019-01-21T04:54:20.067Z,0.11
2019-01-21T04:55:18.655Z,0.29
2019-01-21T04:56:17.369Z,0.46
2019-01-21T04:57:15.936Z,0.57
2019-01-21T04:58:14.453Z,0.57
2019-01-21T04:59:13.041Z,0.49
2019-01-21T05:00:11.785Z,0.42
2019-01-21T05:01:10.445Z,0.36
2019-01-21T05:02:08.993Z,0.49
2019-01-21T05:03:08.501Z,0.24
2019-01-21T05:04:06.361Z,0.31
2019-01-21T05:05:04.915Z,0.49
2019-01-21T05:06:03.475Z,0.35
2019-01-21T05:07:02.003Z,0.39
2019-01-21T05:08:00.546Z,0.41
2019-01-21T05:08:59.105Z,0.35
2019-01-21T05:09:57.617Z,0.42
2019-01-21T05:10:56.329Z,0.49
2019-01-21T05:11:54.857Z,0.38
2019-01-21T05:12:53.479Z,0.39
2019-01-21T05:13:52.277Z,0.35
2019-01-21T05:14:50.835Z,0.36
2019-01-21T05:17:31.294Z,0.24
2019-01-21T05:18:29.886Z,0.24
2019-01-21T05:19:28.563Z,0.21
2019-01-21T05:20:29.268Z,0.21
2019-01-21T05:21:27.937Z,0.07
2019-01-21T05:22:26.463Z,0.1
2019-01-21T05:23:25.027Z,0.2
2019-01-21T05:24:23.637Z,0.24
2019-01-21T05:25:22.185Z,0.28
2019-01-21T05:26:20.744Z,0.29
2019-01-21T05:27:19.339Z,0.35
2019-01-21T05:28:18.040Z,0.14
2019-01-21T05:29:16.585Z,0.11
2019-01-21T05:30:18.015Z,0.26
2019-01-21T05:31:16.662Z,0.18
2019-01-21T05:32:15.204Z,0.1
2019-01-21T05:34:55.426Z,-0.04
2019-01-21T05:35:54.058Z,-0.05
2019-01-21T05:38:17.248Z,-0.19
2019-01-21T05:39:15.920Z,-0.25
2019-01-21T05:40:14.555Z,-0.33
2019-01-21T05:41:13.097Z,-0.31
2019-01-21T05:42:11.645Z,-0.31
2019-01-21T05:43:10.183Z,-0.22
2019-01-21T05:44:08.724Z,-0.22
2019-01-21T05:46:41.708Z,-0.26
2019-01-21T05:47:40.263Z,-0.04
2019-01-21T05:48:38.816Z,-0.05
2019-01-21T05:49:37.337Z,-0.14
2019-01-21T05:50:35.853Z,-0.22
2019-01-21T05:51:34.431Z,-0.29
2019-01-21T05:52:32.964Z,-0.28
2019-01-21T05:53:31.628Z,-0.25
2019-01-21T05:54:30.235Z,-0.31
2019-01-21T05:55:28.846Z,-0.28
2019-01-21T05:56:27.632Z,-0.36
2019-01-21T05:57:26.278Z,-0.34
2019-01-21T05:58:25.004Z,-0.25
2019-01-21T05:59:23.549Z,-0.33
2019-01-21T06:00:22.333Z,-0.29
2019-01-21T06:01:20.851Z,-0.28
2019-01-21T06:02:19.391Z,-0.31
2019-01-21T06:03:18.546Z,-0.28
2019-01-21T06:04:17.102Z,-0.23
2019-01-21T06:05:15.645Z,-0.11
2019-01-21T06:06:14.203Z,-0.14
2019-01-21T06:07:12.743Z,-0.16
2019-01-21T06:08:11.401Z,-0.18
2019-01-21T06:09:10.270Z,-0.25
2019-01-21T06:10:08.798Z,-0.34
2019-01-21T06:11:07.430Z,-0.39
2019-01-21T06:12:06.071Z,-0.44
2019-01-21T06:13:04.608Z,-0.29
2019-01-21T06:14:03.151Z,-0.25
2019-01-21T06:15:01.753Z,-0.46
2019-01-21T06:16:00.520Z,-0.36
2019-01-21T06:16:59.069Z,-0.4
2019-01-21T06:17:57.640Z,-0.51
2019-01-21T06:18:57.280Z,-0.39
2019-01-21T06:19:54.959Z,-0.43
2019-01-21T06:20:53.595Z,-0.34
2019-01-21T06:21:52.207Z,-0.31
2019-01-21T06:22:51.173Z,-0.49
2019-01-21T06:23:50.086Z,-0.42
2019-01-21T06:24:48.609Z,-0.46
2019-01-21T06:25:47.169Z,-0.37
2019-01-21T06:26:45.827Z,-0.33
2019-01-21T06:27:44.482Z,-0.4
2019-01-21T06:28:42.997Z,-0.34
2019-01-21T06:29:41.549Z,-0.62
2019-01-21T06:30:40.253Z,-0.62
2019-01-21T06:31:38.847Z,-0.75
2019-01-21T06:32:37.748Z,-0.89
2019-01-21T06:33:36.485Z,-0.76
2019-01-21T06:34:35.042Z,-0.83
2019-01-21T06:35:33.550Z,-0.55
2019-01-21T06:36:32.106Z,-0.46
2019-01-21T06:37:30.668Z,-0.31
2019-01-21T06:38:29.222Z,-0.25
2019-01-21T06:39:27.849Z,-0.19
2019-01-21T06:40:26.623Z,-0.21
2019-01-21T06:41:25.264Z,-0.33
2019-01-21T06:42:23.864Z,-0.19
2019-01-21T06:43:22.791Z,-0.47
2019-01-21T06:45:57.831Z,-0.52
2019-01-21T06:49:36.917Z,-0.51
2019-01-21T06:50:35.476Z,-0.43
2019-01-21T06:51:34.170Z,-0.33
2019-01-21T06:52:32.740Z,-0.51
2019-01-21T06:53:31.267Z,-0.47
2019-01-21T06:54:29.798Z,-0.44
2019-01-21T06:55:28.345Z,-0.34
2019-01-21T06:56:26.896Z,-0.28
2019-01-21T06:57:25.611Z,-0.26
2019-01-21T07:17:55.456Z,-0.14
2019-01-21T07:18:54.278Z,-0.31
2019-01-21T07:19:52.830Z,-0.04
2019-01-21T07:20:51.448Z,-0.03
2019-01-21T07:21:50.159Z,-0.08
2019-01-21T07:22:48.713Z,-0.1
2019-01-21T07:23:47.234Z,-0.03
2019-01-21T07:26:27.536Z,0.26
2019-01-21T07:27:26.356Z,1.14
2019-01-21T07:28:25.029Z,2.53
2019-01-21T07:29:23.608Z,2.21
2019-01-21T07:30:22.278Z,1.44
2019-01-21T07:31:20.865Z,1.04
2019-01-21T07:32:19.421Z,0.76
2019-01-21T07:35:00.036Z,0.58
2019-01-21T07:35:58.576Z,0.93
2019-01-21T07:56:01.218Z,-0.03
2019-01-21T07:56:59.780Z,0.07
2019-01-21T07:57:58.332Z,-0.37
2019-01-21T07:58:56.961Z,-0.52
2019-01-21T07:59:55.802Z,-0.46
2019-01-21T08:00:54.542Z,-0.36
2019-01-21T08:01:53.064Z,-0.44
2019-01-21T08:02:51.840Z,-0.23
2019-01-21T08:03:50.443Z,-0.08
2019-01-21T08:04:48.988Z,0
2019-01-21T08:05:47.833Z,0.04
2019-01-21T08:06:46.445Z,-0.1
2019-01-21T08:07:44.968Z,1.27
2019-01-21T08:08:43.725Z,2.61
2019-01-21T08:09:42.334Z,2.56
2019-01-21T08:10:40.882Z,2.46
2019-01-21T08:11:39.443Z,2.16
2019-01-21T08:12:38.016Z,1.73
2019-01-21T08:13:36.562Z,1.55
2019-01-21T08:14:35.116Z,0.98
2019-01-21T08:15:33.731Z,1
2019-01-21T08:16:32.511Z,0.76
2019-01-21T08:17:31.079Z,1.6
2019-01-21T08:18:29.886Z,2.53
2019-01-21T08:19:28.557Z,2.35
2019-01-21T08:20:27.091Z,1.69
2019-01-21T08:21:25.623Z,1.63
2019-01-21T08:22:24.219Z,1.27
2019-01-21T08:23:22.787Z,0.79
2019-01-21T08:24:21.482Z,0.73
2019-01-21T08:25:20.148Z,0.75
2019-01-21T08:26:18.880Z,0.83
2019-01-21T08:27:17.515Z,0.65
2019-01-21T08:29:57.529Z,0.8
2019-01-21T08:30:56.194Z,0.84
2019-01-21T08:31:54.764Z,0.76
2019-01-21T08:32:53.267Z,0.83
2019-01-21T08:33:51.789Z,0.93
2019-01-21T08:34:50.331Z,0.93
2019-01-21T08:35:48.837Z,0.94
2019-01-21T08:36:47.407Z,0.87
2019-01-21T08:37:45.938Z,1.02
2019-01-21T08:38:44.463Z,0.91
2019-01-21T08:44:05.091Z,0.98
2019-01-21T08:45:03.641Z,1.15
2019-01-21T08:46:02.259Z,1.23
2019-01-21T08:47:00.813Z,0.96
2019-01-21T08:47:59.353Z,0.75
2019-01-21T08:48:57.914Z,0.6
2019-01-21T08:49:56.460Z,0.79
2019-01-21T08:50:55.045Z,1
2019-01-21T08:54:16.417Z,2.34
2019-01-21T08:56:56.579Z,3.45
2019-01-21T08:57:55.122Z,3.11
2019-01-21T08:58:53.678Z,2.48
2019-01-21T08:59:52.267Z,2.12
2019-01-21T09:00:53.713Z,1.79
2019-01-21T09:01:52.282Z,1.42
2019-01-21T09:02:50.837Z,1.41
2019-01-21T09:03:49.516Z,1.12
2019-01-21T09:04:48.138Z,1.16
2019-01-21T09:08:37.635Z,2.69
2019-01-21T09:09:35.029Z,2.27
2019-01-21T09:10:33.793Z,1.88
2019-01-21T09:11:32.480Z,1.65
2019-01-21T09:12:30.990Z,1.62
2019-01-21T09:13:29.575Z,1.48
2019-01-21T09:14:28.310Z,1.47
2019-01-21T09:15:26.856Z,1.45
2019-01-21T09:16:25.434Z,1.4
2019-01-21T09:17:24.343Z,1.3
2019-01-21T09:18:22.857Z,1.36
2019-01-21T09:19:21.395Z,1.41
2019-01-21T09:20:20.238Z,1.33
2019-01-21T09:21:18.794Z,1.15
2019-01-21T09:22:17.377Z,1.09
2019-01-21T09:23:16.081Z,1.02
2019-01-21T09:24:15.716Z,1.23
2019-01-21T09:25:13.472Z,0.76
2019-01-21T09:26:12.165Z,1.02
2019-01-21T09:27:10.695Z,1.04
2019-01-21T09:28:09.296Z,1.06
2019-01-21T09:30:50.129Z,2.67
2019-01-21T09:31:48.686Z,3.29
2019-01-21T09:32:47.219Z,3.1
2019-01-21T09:33:45.750Z,2.64
2019-01-21T09:34:44.349Z,2.03
2019-01-21T09:35:42.931Z,1.87
2019-01-21T09:36:41.553Z,1.63
2019-01-21T09:37:40.759Z,1.62
2019-01-21T09:38:39.373Z,1.41
2019-01-21T09:39:37.913Z,1.36
2019-01-21T09:40:36.646Z,1.42
2019-01-21T09:41:35.211Z,1.47
2019-01-21T09:42:33.826Z,1.29
2019-01-21T09:43:32.623Z,1.34
2019-01-21T09:44:31.140Z,1.3
2019-01-21T09:45:29.800Z,1.33
2019-01-21T09:46:28.637Z,1.37
2019-01-21T09:47:27.209Z,1.47
2019-01-21T09:59:10.449Z,1.68
2019-01-21T10:00:08.996Z,1.55
2019-01-21T10:01:07.725Z,2.14
2019-01-21T10:02:06.379Z,2.6
2019-01-21T10:03:04.916Z,2.31
2019-01-21T10:04:03.540Z,2.82
2019-01-21T10:05:02.241Z,2.67
2019-01-21T10:06:00.806Z,3.4
2019-01-21T10:06:59.367Z,2.97
2019-01-21T10:07:57.905Z,2.64
2019-01-21T10:08:56.499Z,2.52
2019-01-21T10:12:35.573Z,1.91
2019-01-21T10:13:34.357Z,2
2019-01-21T10:14:32.896Z,3.2
2019-01-21T10:15:31.638Z,2.89
2019-01-21T10:16:30.228Z,3.03
2019-01-21T10:17:28.785Z,3.33
2019-01-21T10:18:27.405Z,3.17
2019-01-21T10:19:26.189Z,2.85
2019-01-21T10:20:24.717Z,2.38
2019-01-21T10:21:23.252Z,2.07
2019-01-21T10:22:21.941Z,2.1
2019-01-21T10:23:20.468Z,2.25
2019-01-21T10:24:18.994Z,2.31
2019-01-21T10:25:17.517Z,2.25
2019-01-21T10:26:16.079Z,2.27
2019-01-21T10:27:14.646Z,2.23
2019-01-21T10:28:13.182Z,2.1
2019-01-21T10:29:11.918Z,2.21
2019-01-21T10:31:52.419Z,2.24
2019-01-21T10:32:50.961Z,2.31
2019-01-21T10:33:49.503Z,2.28
2019-01-21T10:34:48.071Z,2.3
2019-01-21T10:35:46.624Z,2.46
2019-01-21T10:38:26.698Z,3.83
2019-01-21T10:39:25.282Z,3.69
2019-01-21T10:40:24.017Z,2.87
2019-01-21T10:41:22.584Z,2.71
2019-01-21T10:43:45.196Z,2.71
2019-01-21T10:44:43.887Z,2.66
2019-01-21T10:45:42.455Z,2.56
2019-01-21T10:46:40.992Z,3.17
2019-01-21T10:47:39.566Z,4.59
2019-01-21T10:48:38.378Z,4.51
2019-01-21T10:49:36.890Z,4.63
2019-01-21T10:50:36.113Z,4.22
2019-01-21T10:51:34.362Z,3.8
2019-01-21T10:52:32.910Z,3.15
2019-01-21T10:53:31.446Z,2.66
2019-01-21T10:54:30.088Z,2.61
2019-01-21T10:55:28.661Z,2.61
2019-01-21T10:56:27.189Z,2.75
2019-01-21T10:57:25.759Z,2.67
2019-01-21T10:58:24.387Z,2.61
2019-01-21T10:59:22.896Z,2.64
2019-01-21T11:03:02.638Z,2.66
2019-01-21T11:05:42.011Z,4.16
2019-01-21T11:06:40.657Z,3.79
2019-01-21T11:09:26.473Z,3.17
2019-01-21T11:10:19.249Z,3.03
2019-01-21T11:11:17.956Z,3
2019-01-21T11:12:16.620Z,2.84
2019-01-21T11:13:15.154Z,2.56
2019-01-21T11:14:13.818Z,2.71
2019-01-21T11:15:12.672Z,2.59
2019-01-21T11:16:11.191Z,2.79
2019-01-21T11:17:09.779Z,2.63
2019-01-21T11:18:08.387Z,2.71
2019-01-21T11:20:49.922Z,2.57
2019-01-21T11:21:48.678Z,2.66
2019-01-21T11:22:47.223Z,2.69
2019-01-21T11:23:45.849Z,2.63
2019-01-21T11:26:26.014Z,2.84
2019-01-21T11:27:24.760Z,2.79
2019-01-21T11:29:18.062Z,2.95
2019-01-21T11:30:16.839Z,2.89
2019-01-21T11:31:15.365Z,3
2019-01-21T11:32:14.163Z,3.14
2019-01-21T11:33:12.855Z,2.85
2019-01-21T11:34:11.453Z,2.89
2019-01-21T11:35:10.198Z,2.95
2019-01-21T11:36:08.788Z,2.89
2019-01-21T11:37:07.333Z,2.81
2019-01-21T11:40:45.960Z,3
2019-01-21T11:41:44.499Z,3.03
2019-01-21T11:42:43.050Z,2.99
2019-01-21T11:43:41.670Z,2.87
2019-01-21T11:44:40.281Z,2.92
2019-01-21T11:45:38.817Z,2.93
2019-01-21T11:46:37.350Z,3
2019-01-21T11:47:36.192Z,2.95
2019-01-21T11:48:34.742Z,3.06
2019-01-21T11:49:33.283Z,3.06
2019-01-21T11:50:31.955Z,3.47
2019-01-21T11:51:30.530Z,4.5
2019-01-21T11:52:29.050Z,4.04
2019-01-21T11:53:27.605Z,3.45
2019-01-21T11:54:26.168Z,2.95
2019-01-21T11:55:24.707Z,3.02
2019-01-21T11:56:23.247Z,3.1
2019-01-21T11:57:21.846Z,3
2019-01-21T11:58:20.536Z,2.96
2019-01-21T11:59:19.102Z,3.06
2019-01-21T12:00:17.948Z,3.08
2019-01-21T12:01:16.569Z,3.18
2019-01-21T12:02:15.126Z,3.18
2019-01-21T12:03:13.624Z,3.23
2019-01-21T12:04:12.183Z,3.18
2019-01-21T12:05:10.709Z,3.2
2019-01-21T12:06:09.254Z,3.8
2019-01-21T12:07:07.812Z,4.44
2019-01-21T12:08:06.365Z,4.02
2019-01-21T12:09:04.897Z,3.79
2019-01-21T12:10:03.559Z,3.76
2019-01-21T12:11:02.237Z,3.7
2019-01-21T12:12:00.861Z,3.58
2019-01-21T12:12:59.397Z,3.55
2019-01-21T12:13:58.211Z,3.62
2019-01-21T12:14:56.809Z,3.48
2019-01-21T12:15:55.355Z,3.32
2019-01-21T12:16:54.323Z,3.4
2019-01-21T12:17:52.887Z,3.52
2019-01-21T12:18:51.406Z,3.45
2019-01-21T12:19:50.292Z,3.42
2019-01-21T12:20:48.834Z,3.24
2019-01-21T12:21:47.368Z,3.21
2019-01-21T12:22:46.004Z,3.5
2019-01-21T12:23:44.658Z,3.97
2019-01-21T12:24:43.199Z,3.87
2019-01-21T12:25:41.974Z,4
2019-01-21T12:26:40.607Z,4.37
2019-01-21T12:27:39.138Z,4.2
2019-01-21T12:28:37.854Z,3.83
2019-01-21T12:29:36.613Z,3.76
2019-01-21T12:30:35.108Z,3.75
2019-01-21T12:31:33.639Z,3.69
2019-01-21T12:32:32.191Z,3.8
2019-01-21T12:33:30.736Z,3.7
2019-01-21T12:34:29.304Z,3.66
2019-01-21T12:35:27.810Z,3.66
2019-01-21T12:36:26.409Z,3.57
2019-01-21T12:37:24.938Z,3.55
2019-01-21T12:38:23.615Z,3.65
2019-01-21T12:39:22.436Z,3.62
2019-01-21T12:40:21.020Z,3.75
2019-01-21T12:41:21.646Z,3.7
2019-01-21T12:42:18.307Z,3.47
2019-01-21T12:43:16.827Z,3.45
2019-01-21T12:44:15.355Z,3.57
2019-01-21T12:45:13.885Z,3.66
2019-01-21T12:46:12.419Z,3.6
2019-01-21T12:47:11.026Z,3.51
2019-01-21T12:48:09.561Z,3.58
2019-01-21T12:49:08.097Z,3.42
2019-01-21T12:50:06.619Z,3.48
2019-01-21T12:51:05.196Z,3.6
2019-01-21T12:52:03.874Z,3.57
2019-01-21T12:53:02.593Z,3.61
2019-01-21T12:54:01.152Z,3.54
2019-01-21T12:54:59.824Z,3.52
2019-01-21T12:55:58.528Z,3.58
2019-01-21T12:56:57.120Z,3.6
2019-01-21T12:57:55.637Z,3.55
2019-01-21T12:58:54.197Z,3.39
2019-01-21T12:59:52.731Z,3.36
2019-01-21T13:00:51.247Z,3.54
2019-01-21T13:01:49.768Z,3.58
2019-01-21T13:02:48.308Z,3.42
2019-01-21T13:03:46.831Z,3.47
2019-01-21T13:04:45.422Z,3.66
2019-01-21T13:05:43.966Z,3.72
2019-01-21T13:06:42.479Z,3.91
2019-01-21T13:07:41.043Z,3.93
2019-01-21T13:08:39.628Z,3.96
2019-01-21T13:09:38.186Z,4.34
2019-01-21T13:10:36.873Z,4.94
2019-01-21T13:11:35.505Z,4.66
2019-01-21T13:12:34.098Z,4.4
2019-01-21T13:13:32.615Z,4.24
2019-01-21T13:14:31.146Z,4
2019-01-21T13:15:29.833Z,3.98
2019-01-21T13:16:28.436Z,4.02
2019-01-21T13:17:27.006Z,4.05
2019-01-21T13:18:25.557Z,3.98
2019-01-21T13:19:24.126Z,3.91
2019-01-21T13:20:22.739Z,4
2019-01-21T13:21:21.268Z,4.11
2019-01-21T13:22:19.924Z,4.05
2019-01-21T13:23:18.612Z,4
2019-01-21T13:24:17.136Z,4.11
2019-01-21T13:25:15.863Z,4.09
2019-01-21T13:26:14.545Z,3.93
2019-01-21T13:27:13.099Z,3.87
2019-01-21T13:28:11.624Z,3.83
2019-01-21T13:29:10.151Z,3.88
2019-01-21T13:30:08.641Z,4.02
2019-01-21T13:31:07.162Z,4.05
2019-01-21T13:32:05.869Z,4.51
2019-01-21T13:33:04.547Z,5.1
2019-01-21T13:34:03.094Z,4.88
2019-01-21T13:35:01.615Z,4.6
2019-01-21T13:36:00.410Z,5.2
2019-01-21T13:36:58.946Z,5.56
2019-01-21T13:37:57.573Z,5
2019-01-21T13:38:56.197Z,4.33
2019-01-21T13:39:54.788Z,4.33
2019-01-21T13:40:53.341Z,4.26
2019-01-21T13:41:51.969Z,4.15
2019-01-21T13:42:50.477Z,4.11
2019-01-21T13:43:49.049Z,4.04
2019-01-21T13:44:47.731Z,4.04
2019-01-21T13:45:46.593Z,4.18
2019-01-21T13:46:45.143Z,4.11
2019-01-21T13:47:43.777Z,4.15
2019-01-21T13:48:42.458Z,4.2
2019-01-21T13:49:40.990Z,4.05
2019-01-21T13:50:39.516Z,4.11
2019-01-21T13:51:38.072Z,4.02
2019-01-21T13:52:36.609Z,4.05
2019-01-21T13:53:35.148Z,3.93
2019-01-21T13:54:33.741Z,4.15
2019-01-21T13:55:32.420Z,4.16
2019-01-21T13:56:31.057Z,4.02
2019-01-21T13:57:29.782Z,4.04
2019-01-21T13:58:28.425Z,4
2019-01-21T13:59:26.983Z,4.16
2019-01-21T14:00:25.612Z,4.16
2019-01-21T14:01:24.214Z,4.05
2019-01-21T14:02:22.751Z,4.18
2019-01-21T14:03:21.262Z,4.09
2019-01-21T14:04:19.791Z,4.16
2019-01-21T14:05:18.346Z,4.09
2019-01-21T14:06:16.888Z,4.11
2019-01-21T14:07:15.446Z,4.22
2019-01-21T14:08:14.148Z,4.2
2019-01-21T14:09:12.775Z,4.16
2019-01-21T14:10:11.359Z,4.15
2019-01-21T14:11:10.122Z,4.02
2019-01-21T14:12:08.737Z,4.2
2019-01-21T14:14:49.179Z,4.2
2019-01-21T14:15:47.722Z,4.22
2019-01-21T14:16:46.459Z,4.26
2019-01-21T14:17:44.993Z,4.62
2019-01-21T14:18:43.673Z,4.55
2019-01-21T14:19:42.271Z,4.41
2019-01-21T14:20:43.653Z,4.36
2019-01-21T14:21:39.363Z,4.37
2019-01-21T14:22:37.881Z,4.37
2019-01-21T14:25:00.585Z,4.23
2019-01-21T14:25:59.126Z,4.24
2019-01-21T14:26:57.684Z,4.26
2019-01-21T14:27:56.573Z,4.22
2019-01-21T14:28:55.116Z,4.16
2019-01-21T14:29:53.720Z,4.23
2019-01-21T14:30:53.095Z,4.32
2019-01-21T14:33:27.318Z,4.26
2019-01-21T14:34:25.936Z,4.23
2019-01-21T14:35:24.527Z,4.2
2019-01-21T14:36:23.037Z,4.2
2019-01-21T14:37:21.574Z,4.24
2019-01-21T14:38:20.094Z,4.16
2019-01-21T14:39:18.623Z,4.02
2019-01-21T14:40:17.133Z,3.98
2019-01-21T14:41:15.658Z,4.15
2019-01-21T14:42:14.212Z,4.14
2019-01-21T14:43:12.943Z,4.18
2019-01-21T14:44:11.494Z,4.12
2019-01-21T14:45:10.465Z,4.24
2019-01-21T14:46:10.237Z,4.24
2019-01-21T14:47:07.524Z,4.14
2019-01-21T14:48:06.168Z,4.15
2019-01-21T14:49:05.178Z,4
2019-01-21T14:50:03.285Z,4.05
2019-01-21T14:51:01.842Z,4.15
2019-01-21T14:52:00.372Z,4
2019-01-21T14:52:58.941Z,4.06
2019-01-21T14:53:57.678Z,4.05
2019-01-21T14:54:56.569Z,4.08
2019-01-21T14:55:55.108Z,4.02
2019-01-21T14:56:53.669Z,4.16
2019-01-21T14:57:52.384Z,4.15
2019-01-21T14:58:50.944Z,4.12
2019-01-21T14:59:49.475Z,4.05
2019-01-21T15:00:48.025Z,4.08
2019-01-21T15:01:46.601Z,4.06
2019-01-21T15:02:45.127Z,4.11
2019-01-21T15:03:43.858Z,4.18
2019-01-21T15:04:42.655Z,4.09
2019-01-21T15:05:41.215Z,4.08
2019-01-21T15:06:39.802Z,4.11
2019-01-21T15:07:38.593Z,4
2019-01-21T15:08:37.070Z,4.02
2019-01-21T15:09:35.649Z,4
2019-01-21T15:10:34.162Z,3.97
2019-01-21T15:11:32.696Z,3.98
2019-01-21T15:12:31.459Z,4.02
2019-01-21T15:13:30.460Z,4.02
2019-01-21T15:14:29.011Z,3.88
2019-01-21T15:15:27.534Z,3.8
2019-01-21T15:16:26.202Z,3.88
2019-01-21T15:17:24.710Z,3.83
2019-01-21T15:18:23.242Z,3.9
2019-01-21T15:19:22.090Z,3.8
2019-01-21T15:20:20.731Z,3.68
2019-01-21T15:21:19.218Z,3.62
2019-01-21T15:22:17.748Z,3.72
2019-01-21T15:23:16.676Z,3.76
2019-01-21T15:24:15.237Z,3.83
2019-01-21T15:25:13.831Z,3.78
2019-01-21T15:26:12.360Z,3.78
2019-01-21T15:27:11.135Z,3.75
2019-01-21T15:28:09.364Z,3.78
2019-01-21T15:29:07.977Z,3.83
2019-01-21T15:30:06.497Z,3.88
2019-01-21T15:31:05.077Z,3.87
2019-01-21T15:32:03.607Z,3.78
2019-01-21T15:33:02.191Z,3.93
2019-01-21T15:34:00.763Z,3.84
2019-01-21T15:34:59.222Z,3.79
2019-01-21T15:37:39.485Z,3.75
2019-01-21T15:38:38.249Z,3.7
2019-01-21T15:39:36.865Z,3.72
2019-01-21T15:40:35.379Z,3.68
2019-01-21T15:41:34.177Z,3.72
2019-01-21T15:42:32.627Z,3.73
2019-01-21T15:43:31.199Z,3.78
2019-01-21T15:44:29.875Z,3.65
2019-01-21T15:45:28.666Z,3.72